createdAt,value
2023-04-07T00:00:35.685Z,4.50
2023-04-07T00:03:07.420Z,5.03
2023-04-07T00:05:36.066Z,4.87
2023-04-07T00:08:04.370Z,4.39
2023-04-07T00:10:32.643Z,4.91
2023-04-07T00:13:00.938Z,5.03
2023-04-07T00:15:29.305Z,5.02
2023-04-07T00:17:57.624Z,4.99
2023-04-07T00:20:27.572Z,4.40
2023-04-07T00:22:55.908Z,4.42
2023-04-07T00:25:24.193Z,4.21
2023-04-07T00:27:52.466Z,4.23
2023-04-07T00:30:20.852Z,4.30
2023-04-07T00:32:49.383Z,4.27
2023-04-07T00:35:17.713Z,4.64
2023-04-07T00:37:47.378Z,4.50
2023-04-07T00:40:15.722Z,4.36
2023-04-07T00:42:43.924Z,4.57
2023-04-07T00:45:12.937Z,4.31
2023-04-07T00:47:41.758Z,4.13
2023-04-07T00:50:10.878Z,4.43
2023-04-07T00:52:39.309Z,4.59
2023-04-07T00:55:10.126Z,4.25
2023-04-07T00:57:38.480Z,4.30
2023-04-07T01:00:08.511Z,4.20
2023-04-07T01:02:42.007Z,3.90
2023-04-07T01:05:16.321Z,3.98
2023-04-07T01:07:54.463Z,3.95
2023-04-07T01:10:33.221Z,3.74
2023-04-07T01:13:07.642Z,3.84
2023-04-07T01:15:37.454Z,3.83
2023-04-07T01:18:14.346Z,3.87
2023-04-07T01:20:47.457Z,3.74
2023-04-07T01:23:42.654Z,4.26
2023-04-07T01:26:23.026Z,4.54
2023-04-07T01:29:31.743Z,4.26
2023-04-07T01:32:02.196Z,4.16
2023-04-07T01:34:32.834Z,3.80
2023-04-07T01:37:03.869Z,3.49
2023-04-07T01:39:33.484Z,3.76
2023-04-07T01:42:03.183Z,3.96
2023-04-07T01:44:34.444Z,3.97
2023-04-07T01:47:03.456Z,3.95
2023-04-07T01:49:32.624Z,4.21
2023-04-07T01:52:01.730Z,4.43
2023-04-07T01:54:30.584Z,4.18
2023-04-07T01:56:58.837Z,4.37
2023-04-07T01:59:27.076Z,4.07
2023-04-07T02:01:56.865Z,4.05
2023-04-07T02:04:32.359Z,3.49
2023-04-07T02:07:04.370Z,4.10
2023-04-07T02:09:34.664Z,4.02
2023-04-07T02:12:06.612Z,4.14
2023-04-07T02:14:35.554Z,4.13
2023-04-07T02:17:06.532Z,3.96
2023-04-07T02:19:36.158Z,3.67
2023-04-07T02:22:05.022Z,4.21
2023-04-07T02:24:33.291Z,4.13
2023-04-07T02:27:02.373Z,3.78
2023-04-07T02:29:48.079Z,3.86
2023-04-07T02:32:18.075Z,3.83
2023-04-07T02:34:46.445Z,4.03
2023-04-07T02:37:14.659Z,3.49
2023-04-07T02:39:42.975Z,3.72
2023-04-07T02:42:11.187Z,3.45
2023-04-07T02:44:39.500Z,3.31
2023-04-07T02:47:07.799Z,3.05
2023-04-07T02:49:37.407Z,2.90
2023-04-07T02:52:06.091Z,2.92
2023-04-07T02:54:34.494Z,2.73
2023-04-07T02:57:02.937Z,2.87
2023-04-07T02:59:31.172Z,3.02
2023-04-07T03:01:59.639Z,3.25
2023-04-07T03:04:28.423Z,3.06
2023-04-07T03:06:58.386Z,2.96
2023-04-07T03:09:26.830Z,2.92
2023-04-07T03:11:55.062Z,3.26
2023-04-07T03:14:23.453Z,3.52
2023-04-07T03:16:51.787Z,3.50
2023-04-07T03:19:20.052Z,3.27
2023-04-07T03:21:48.416Z,3.42
2023-04-07T03:24:18.561Z,3.20
2023-04-07T03:26:47.272Z,3.14
2023-04-07T03:29:15.696Z,3.12
2023-04-07T03:31:43.918Z,3.33
2023-04-07T03:34:12.180Z,3.77
2023-04-07T03:36:40.552Z,3.60
2023-04-07T03:39:08.880Z,3.89
2023-04-07T03:41:38.537Z,4.01
2023-04-07T03:44:07.208Z,3.68
2023-04-07T03:46:35.498Z,3.15
2023-04-07T03:49:03.889Z,3.61
2023-04-07T03:51:33.216Z,4.09
2023-04-07T03:54:01.531Z,3.75
2023-04-07T03:56:29.927Z,3.89
2023-04-07T03:58:59.637Z,3.81
2023-04-07T04:01:28.119Z,3.84
2023-04-07T04:03:56.804Z,3.82
2023-04-07T04:06:26.680Z,3.73
2023-04-07T04:08:54.939Z,3.25
2023-04-07T04:11:23.564Z,3.36
2023-04-07T04:13:52.307Z,3.37
2023-04-07T04:16:22.793Z,3.15
2023-04-07T04:18:51.145Z,3.14
2023-04-07T04:21:19.583Z,2.95
2023-04-07T04:23:47.860Z,2.71
2023-04-07T04:26:16.212Z,3.05
2023-04-07T04:28:44.581Z,3.33
2023-04-07T04:31:12.878Z,3.20
2023-04-07T04:33:42.595Z,3.58
2023-04-07T04:36:11.067Z,3.57
2023-04-07T04:38:39.419Z,3.39
2023-04-07T04:41:07.724Z,3.56
2023-04-07T04:43:36.166Z,3.62
2023-04-07T04:46:04.462Z,3.84
2023-04-07T04:48:32.662Z,4.03
2023-04-07T04:51:02.249Z,4.42
2023-04-07T04:53:30.723Z,5.04
2023-04-07T04:55:59.008Z,4.65
2023-04-07T04:58:27.262Z,4.38
2023-04-07T05:00:58.451Z,4.49
2023-04-07T05:03:27.410Z,4.25
2023-04-07T05:05:55.989Z,4.38
2023-04-07T05:08:25.633Z,4.14
2023-04-07T05:10:54.021Z,4.39
2023-04-07T05:13:22.324Z,4.39
2023-04-07T05:15:50.856Z,4.43
2023-04-07T05:18:19.172Z,4.56
2023-04-07T05:20:49.992Z,4.77
2023-04-07T05:23:18.357Z,4.90
2023-04-07T05:25:48.029Z,5.16
2023-04-07T05:28:16.338Z,5.61
2023-04-07T05:30:44.702Z,5.84
2023-04-07T05:33:13.500Z,5.78
2023-04-07T05:35:42.254Z,5.86
2023-04-07T05:38:10.844Z,5.99
2023-04-07T05:40:39.101Z,5.91
2023-04-07T05:43:08.845Z,6.31
2023-04-07T05:45:37.186Z,6.77
2023-04-07T05:48:05.893Z,6.52
2023-04-07T05:50:34.257Z,6.59
2023-04-07T05:53:02.494Z,6.42
2023-04-07T05:55:31.306Z,6.87
2023-04-07T05:57:59.634Z,7.35
2023-04-07T06:00:29.366Z,7.15
2023-04-07T06:02:57.786Z,6.60
2023-04-07T06:05:26.348Z,6.49
2023-04-07T06:07:54.951Z,6.80
2023-04-07T06:10:23.378Z,7.07
2023-04-07T06:12:51.643Z,7.28
2023-04-07T06:15:20.005Z,7.18
2023-04-07T06:17:49.811Z,7.32
2023-04-07T06:20:18.102Z,7.75
2023-04-07T06:22:46.651Z,8.23
2023-04-07T06:25:15.073Z,8.04
2023-04-07T06:27:44.609Z,7.75
2023-04-07T06:30:13.601Z,8.19
2023-04-07T06:32:41.814Z,8.77
2023-04-07T06:35:11.813Z,8.81
2023-04-07T06:37:40.549Z,9.50
2023-04-07T06:40:10.003Z,9.32
2023-04-07T06:42:38.308Z,9.88
2023-04-07T06:45:07.428Z,9.22
2023-04-07T06:47:35.786Z,9.58
2023-04-07T06:50:04.256Z,9.68
2023-04-07T06:52:33.996Z,10.16
2023-04-07T06:55:02.294Z,10.55
2023-04-07T06:57:30.662Z,11.28
2023-04-07T06:59:58.976Z,11.04
2023-04-07T07:02:27.390Z,11.66
2023-04-07T07:04:55.724Z,11.54
2023-04-07T07:07:25.863Z,11.90
2023-04-07T07:09:55.617Z,11.97
2023-04-07T07:12:23.980Z,12.16
2023-04-07T07:14:52.281Z,11.69
2023-04-07T07:17:20.595Z,12.08
2023-04-07T07:19:48.960Z,11.88
2023-04-07T07:22:17.214Z,12.63
2023-04-07T07:24:45.592Z,13.21
2023-04-07T07:27:15.519Z,12.81
2023-04-07T07:29:43.813Z,12.51
2023-04-07T07:32:12.056Z,13.03
2023-04-07T07:34:40.474Z,14.19
2023-04-07T07:37:08.829Z,13.15
2023-04-07T07:39:37.234Z,13.56
2023-04-07T07:42:05.539Z,13.50
2023-04-07T07:44:35.137Z,13.70
2023-04-07T07:47:03.422Z,15.16
2023-04-07T07:49:32.029Z,14.57
2023-04-07T07:52:01.067Z,14.03
2023-04-07T07:54:29.349Z,15.45
2023-04-07T07:56:57.606Z,15.21
2023-04-07T07:59:26.042Z,14.80
2023-04-07T08:01:55.919Z,16.14
2023-04-07T08:04:24.645Z,14.67
2023-04-07T08:06:53.484Z,14.50
2023-04-07T08:09:22.250Z,14.55
2023-04-07T08:11:51.369Z,16.12
2023-04-07T08:14:19.872Z,14.95
2023-04-07T08:16:48.625Z,15.45
2023-04-07T08:19:18.380Z,16.85
2023-04-07T08:21:46.653Z,17.59
2023-04-07T08:24:14.967Z,17.93
2023-04-07T08:26:43.366Z,17.00
2023-04-07T08:29:11.660Z,16.37
2023-04-07T08:31:40.101Z,17.60
2023-04-07T08:34:08.521Z,17.24
2023-04-07T08:36:38.250Z,18.06
2023-04-07T08:39:06.570Z,19.49
2023-04-07T08:41:39.029Z,19.71
2023-04-07T08:44:09.601Z,19.49
2023-04-07T08:46:41.052Z,19.28
2023-04-07T08:49:14.035Z,18.41
2023-04-07T08:51:48.670Z,18.95
2023-04-07T08:54:21.922Z,18.44
2023-04-07T08:56:50.477Z,19.09
2023-04-07T08:59:26.744Z,19.82
2023-04-07T09:01:56.351Z,19.82
2023-04-07T09:04:25.206Z,20.06
2023-04-07T09:06:54.932Z,19.91
2023-04-07T09:09:24.529Z,18.29
2023-04-07T09:11:53.146Z,18.05
2023-04-07T09:14:22.565Z,18.04
2023-04-07T09:16:50.959Z,17.76
2023-04-07T09:19:19.277Z,19.14
2023-04-07T09:21:51.559Z,19.79
2023-04-07T09:24:25.803Z,19.13
2023-04-07T09:27:10.650Z,21.17
2023-04-07T09:29:39.415Z,20.29
2023-04-07T09:32:08.291Z,18.86
2023-04-07T09:34:40.370Z,18.31
2023-04-07T09:37:10.849Z,19.40
2023-04-07T09:39:52.475Z,20.41
2023-04-07T09:42:22.776Z,19.57
2023-04-07T09:44:51.273Z,20.42
2023-04-07T09:47:19.885Z,20.52
2023-04-07T09:49:53.881Z,19.97
2023-04-07T09:52:26.977Z,21.51
2023-04-07T09:54:57.804Z,21.26
2023-04-07T09:57:26.735Z,21.95
2023-04-07T09:59:56.259Z,22.31
2023-04-07T10:02:27.038Z,20.36
2023-04-07T10:04:55.562Z,21.42
2023-04-07T10:07:24.115Z,20.95
2023-04-07T10:09:52.453Z,21.02
2023-04-07T10:12:22.793Z,22.51
2023-04-07T10:14:52.885Z,22.57
2023-04-07T10:17:21.848Z,22.70
2023-04-07T10:19:51.497Z,23.19
2023-04-07T10:22:20.797Z,22.51
2023-04-07T10:24:57.631Z,22.56
2023-04-07T10:27:32.427Z,21.81
2023-04-07T10:30:04.177Z,21.78
2023-04-07T10:32:32.533Z,22.81
2023-04-07T10:35:01.398Z,23.18
2023-04-07T10:37:29.825Z,24.29
2023-04-07T10:40:29.351Z,24.47
2023-04-07T10:42:59.609Z,24.53
2023-04-07T10:46:01.764Z,23.98
2023-04-07T10:48:33.282Z,20.40
2023-04-07T10:51:19.163Z,20.73
2023-04-07T10:54:20.847Z,22.61
2023-04-07T10:57:16.148Z,24.26
2023-04-07T11:00:18.694Z,23.83
2023-04-07T11:02:47.674Z,23.65
2023-04-07T11:05:24.071Z,22.63
2023-04-07T11:07:57.921Z,23.35
2023-04-07T11:10:26.704Z,24.49
2023-04-07T11:13:02.505Z,23.51
2023-04-07T11:15:34.179Z,24.89
2023-04-07T11:18:13.041Z,24.88
2023-04-07T11:20:46.981Z,24.39
2023-04-07T11:23:16.612Z,24.61
2023-04-07T11:25:47.095Z,22.94
2023-04-07T11:28:16.196Z,20.97
2023-04-07T11:30:52.166Z,23.45
2023-04-07T11:33:22.754Z,23.42
2023-04-07T11:35:56.885Z,23.05
2023-04-07T11:38:27.530Z,23.10
2023-04-07T11:40:57.601Z,23.20
2023-04-07T11:43:27.800Z,24.11
2023-04-07T11:46:08.069Z,23.82
2023-04-07T11:48:37.480Z,22.66
2023-04-07T11:51:07.002Z,23.30
2023-04-07T11:53:38.253Z,23.12
2023-04-07T11:56:10.283Z,23.16
2023-04-07T11:58:38.984Z,24.19
2023-04-07T12:01:09.728Z,23.41
2023-04-07T12:03:39.068Z,23.59
2023-04-07T12:06:07.679Z,21.78
2023-04-07T12:08:40.710Z,22.14
2023-04-07T12:11:09.435Z,23.57
2023-04-07T12:13:38.442Z,24.94
2023-04-07T12:16:08.589Z,24.15
2023-04-07T12:18:36.954Z,24.01
2023-04-07T12:21:05.765Z,23.90
2023-04-07T12:23:34.043Z,24.36
2023-04-07T12:26:02.538Z,25.21
2023-04-07T12:28:30.798Z,23.16
2023-04-07T12:30:59.061Z,24.75
2023-04-07T12:33:28.840Z,23.68
2023-04-07T12:35:57.193Z,22.42
2023-04-07T12:38:25.616Z,22.91
2023-04-07T12:40:54.284Z,23.00
2023-04-07T12:43:22.544Z,21.56
2023-04-07T12:45:50.796Z,21.53
2023-04-07T12:48:19.098Z,20.41
2023-04-07T12:50:48.842Z,20.29
2023-04-07T12:53:17.426Z,20.15
2023-04-07T12:55:46.113Z,21.37
2023-04-07T12:58:15.309Z,20.81
2023-04-07T13:00:43.675Z,18.93
2023-04-07T13:03:12.039Z,20.10
2023-04-07T13:05:40.395Z,20.02
2023-04-07T13:08:10.678Z,20.88
2023-04-07T13:10:38.957Z,19.75
2023-04-07T13:13:07.323Z,19.82
2023-04-07T13:15:35.703Z,19.95
2023-04-07T13:18:04.212Z,20.23
2023-04-07T13:20:32.480Z,21.38
2023-04-07T13:23:07.003Z,20.78
2023-04-07T13:25:37.629Z,21.07
2023-04-07T13:28:06.724Z,20.90
2023-04-07T13:30:35.135Z,20.70
2023-04-07T13:33:03.574Z,19.89
2023-04-07T13:35:35.978Z,20.36
2023-04-07T13:38:04.806Z,19.88
2023-04-07T13:40:33.112Z,19.44
2023-04-07T13:43:02.997Z,19.15
2023-04-07T13:45:31.336Z,20.02
2023-04-07T13:47:59.679Z,19.96
2023-04-07T13:50:29.180Z,19.31
2023-04-07T13:52:57.372Z,20.30
2023-04-07T13:55:25.812Z,19.99
2023-04-07T13:57:54.497Z,19.39
2023-04-07T14:00:24.440Z,19.35
2023-04-07T14:02:52.862Z,18.84
2023-04-07T14:05:21.200Z,18.37
2023-04-07T14:07:49.753Z,18.20
2023-04-07T14:10:18.318Z,18.55
2023-04-07T14:12:46.783Z,18.65
2023-04-07T14:15:17.739Z,19.02
2023-04-07T14:17:48.094Z,19.42
2023-04-07T14:20:16.444Z,19.43
2023-04-07T14:22:44.735Z,19.20
2023-04-07T14:25:13.159Z,19.76
2023-04-07T14:27:41.510Z,18.55
2023-04-07T14:30:11.020Z,17.95
2023-04-07T14:32:39.354Z,18.36
2023-04-07T14:35:10.970Z,18.45
2023-04-07T14:37:39.820Z,18.12
2023-04-07T14:40:09.538Z,18.64
2023-04-07T14:42:38.155Z,17.89
2023-04-07T14:45:07.343Z,17.22
2023-04-07T14:47:35.711Z,18.12
2023-04-07T14:50:04.000Z,17.31
2023-04-07T14:52:33.723Z,17.99
2023-04-07T14:55:02.059Z,17.50
2023-04-07T14:57:30.360Z,17.57
2023-04-07T14:59:58.646Z,17.52
2023-04-07T15:02:28.813Z,17.81
2023-04-07T15:04:57.776Z,17.81
2023-04-07T15:07:26.477Z,17.07
2023-04-07T15:09:56.981Z,16.96
2023-04-07T15:12:25.280Z,17.22
2023-04-07T15:14:53.637Z,16.92
2023-04-07T15:17:27.569Z,17.60
2023-04-07T15:20:01.585Z,17.04
2023-04-07T15:22:30.729Z,16.79
2023-04-07T15:25:00.578Z,15.94
2023-04-07T15:27:28.880Z,16.57
2023-04-07T15:29:57.322Z,16.21
2023-04-07T15:32:25.754Z,15.98
2023-04-07T15:34:54.243Z,16.72
2023-04-07T15:37:22.558Z,16.67
2023-04-07T15:39:52.412Z,15.89
2023-04-07T15:42:22.150Z,16.03
2023-04-07T15:44:50.407Z,15.42
2023-04-07T15:47:18.760Z,14.72
2023-04-07T15:49:47.042Z,14.84
2023-04-07T15:52:15.505Z,14.88
2023-04-07T15:54:43.969Z,14.38
2023-04-07T15:57:12.253Z,14.33
2023-04-07T15:59:41.942Z,14.18
2023-04-07T16:02:12.937Z,14.00
2023-04-07T16:04:42.354Z,14.11
2023-04-07T16:07:10.745Z,13.64
2023-04-07T16:09:39.107Z,14.08
2023-04-07T16:12:07.776Z,13.69
2023-04-07T16:14:36.456Z,13.08
2023-04-07T16:17:06.449Z,13.55
2023-04-07T16:19:34.712Z,13.56
2023-04-07T16:22:02.982Z,13.32
2023-04-07T16:24:31.392Z,12.78
2023-04-07T16:27:03.999Z,13.13
2023-04-07T16:29:32.651Z,13.19
2023-04-07T16:32:01.144Z,13.02
2023-04-07T16:34:31.064Z,12.95
2023-04-07T16:36:59.398Z,12.51
2023-04-07T16:39:29.542Z,12.19
2023-04-07T16:41:58.656Z,12.55
2023-04-07T16:44:27.405Z,12.48
2023-04-07T16:46:55.745Z,12.80
2023-04-07T16:49:23.991Z,12.77
2023-04-07T16:51:53.692Z,12.43
2023-04-07T16:54:22.057Z,12.31
2023-04-07T16:56:51.098Z,12.25
2023-04-07T16:59:19.420Z,12.44
2023-04-07T17:01:47.918Z,12.37
2023-04-07T17:04:16.237Z,12.22
2023-04-07T17:06:44.575Z,12.29
2023-04-07T17:09:16.251Z,12.47
2023-04-07T17:11:44.579Z,12.28
2023-04-07T17:14:12.882Z,11.90
2023-04-07T17:16:41.305Z,12.13
2023-04-07T17:19:09.538Z,12.38
2023-04-07T17:21:38.666Z,12.66
2023-04-07T17:24:07.897Z,12.90
2023-04-07T17:26:37.624Z,12.70
2023-04-07T17:29:05.985Z,12.44
2023-04-07T17:31:36.118Z,11.97
2023-04-07T17:34:04.476Z,11.93
2023-04-07T17:36:33.901Z,12.30
2023-04-07T17:39:03.414Z,12.40
2023-04-07T17:41:34.545Z,12.62
2023-04-07T17:44:04.304Z,12.21
2023-04-07T17:46:33.114Z,12.18
2023-04-07T17:49:02.211Z,11.79
2023-04-07T17:51:30.492Z,11.63
2023-04-07T17:53:58.737Z,12.04
2023-04-07T17:56:27.189Z,12.04
2023-04-07T17:58:55.889Z,12.01
2023-04-07T18:01:25.718Z,12.19
2023-04-07T18:03:54.557Z,11.10
2023-04-07T18:06:22.980Z,10.91
2023-04-07T18:08:51.346Z,10.95
2023-04-07T18:11:19.688Z,10.95
2023-04-07T18:13:48.152Z,11.01
2023-04-07T18:16:22.011Z,11.64
2023-04-07T18:18:52.743Z,11.37
2023-04-07T18:21:21.454Z,11.15
2023-04-07T18:23:49.898Z,11.00
2023-04-07T18:26:18.315Z,10.98
2023-04-07T18:28:46.622Z,11.36
2023-04-07T18:31:15.558Z,11.30
2023-04-07T18:33:43.863Z,11.27
2023-04-07T18:36:14.664Z,11.53
2023-04-07T18:38:42.988Z,11.29
2023-04-07T18:41:14.351Z,11.26
2023-04-07T18:43:42.780Z,11.15
2023-04-07T18:46:11.215Z,11.13
2023-04-07T18:48:41.072Z,10.98
2023-04-07T18:51:09.462Z,11.38
2023-04-07T18:53:39.203Z,11.28
2023-04-07T18:56:07.889Z,11.48
2023-04-07T18:58:43.652Z,11.64
2023-04-07T19:01:13.297Z,11.42
2023-04-07T19:03:42.424Z,11.63
2023-04-07T19:06:10.982Z,11.52
2023-04-07T19:08:40.744Z,11.44
2023-04-07T19:11:09.172Z,11.43
2023-04-07T19:13:37.644Z,11.23
2023-04-07T19:16:07.766Z,11.27
2023-04-07T19:18:36.779Z,10.83
2023-04-07T19:21:05.248Z,11.27
2023-04-07T19:23:33.568Z,11.38
2023-04-07T19:26:03.460Z,11.04
2023-04-07T19:28:33.853Z,10.93
2023-04-07T19:31:02.579Z,10.88
2023-04-07T19:33:30.842Z,10.93
2023-04-07T19:35:59.379Z,10.75
2023-04-07T19:38:27.715Z,10.54
2023-04-07T19:40:56.010Z,10.53
2023-04-07T19:43:25.805Z,10.39
2023-04-07T19:45:54.426Z,10.32
2023-04-07T19:48:22.740Z,9.92
2023-04-07T19:50:51.533Z,9.96
2023-04-07T19:53:20.077Z,9.80
2023-04-07T19:55:49.140Z,9.65
2023-04-07T19:58:19.049Z,9.38
2023-04-07T20:00:50.782Z,9.48
2023-04-07T20:03:20.187Z,9.29
2023-04-07T20:05:48.654Z,9.33
2023-04-07T20:08:16.992Z,9.54
2023-04-07T20:10:45.292Z,8.49
2023-04-07T20:13:13.522Z,9.19
2023-04-07T20:15:41.897Z,8.91
2023-04-07T20:18:12.166Z,8.90
2023-04-07T20:20:40.440Z,8.79
2023-04-07T20:23:08.709Z,8.44
2023-04-07T20:25:38.105Z,8.25
2023-04-07T20:28:06.413Z,8.17
2023-04-07T20:30:34.797Z,8.22
2023-04-07T20:33:03.239Z,8.15
2023-04-07T20:35:33.036Z,8.13
2023-04-07T20:38:02.857Z,8.09
2023-04-07T20:40:31.892Z,7.77
2023-04-07T20:43:00.171Z,7.72
2023-04-07T20:45:28.507Z,7.65
2023-04-07T20:47:57.000Z,8.44
2023-04-07T20:50:25.929Z,8.18
2023-04-07T20:52:55.876Z,8.32
2023-04-07T20:55:24.119Z,8.50
2023-04-07T20:57:54.437Z,8.67
2023-04-07T21:00:22.914Z,9.01
2023-04-07T21:02:51.630Z,9.13
2023-04-07T21:05:20.694Z,9.22
2023-04-07T21:07:49.119Z,8.95
2023-04-07T21:10:18.968Z,8.64
2023-04-07T21:12:47.353Z,9.19
2023-04-07T21:15:15.900Z,9.08
2023-04-07T21:17:44.134Z,8.92
2023-04-07T21:20:13.147Z,8.91
2023-04-07T21:22:41.479Z,8.92
2023-04-07T21:25:10.645Z,9.05
2023-04-07T21:27:40.397Z,7.79
2023-04-07T21:30:09.913Z,8.69
2023-04-07T21:32:38.206Z,8.91
2023-04-07T21:35:07.486Z,8.87
2023-04-07T21:37:36.009Z,8.88
2023-04-07T21:40:04.434Z,8.85
2023-04-07T21:42:32.735Z,8.98
2023-04-07T21:45:02.668Z,8.90
2023-04-07T21:47:30.960Z,8.77
2023-04-07T21:49:59.873Z,8.89
2023-04-07T21:52:28.681Z,8.62
2023-04-07T21:54:56.966Z,8.97
2023-04-07T21:57:25.303Z,8.89
2023-04-07T21:59:53.634Z,8.99
2023-04-07T22:02:23.474Z,8.97
2023-04-07T22:04:51.969Z,8.64
2023-04-07T22:07:20.507Z,8.75
2023-04-07T22:09:48.824Z,8.78
2023-04-07T22:12:26.471Z,8.72
2023-04-07T22:14:54.824Z,8.43
2023-04-07T22:17:24.461Z,8.26
2023-04-07T22:19:52.794Z,8.03
2023-04-07T22:22:21.424Z,8.16
2023-04-07T22:24:49.755Z,8.03
2023-04-07T22:27:18.029Z,8.23
2023-04-07T22:29:46.482Z,8.19
2023-04-07T22:32:14.873Z,8.18
2023-04-07T22:34:45.681Z,7.73
2023-04-07T22:37:14.298Z,8.11
2023-04-07T22:39:44.606Z,8.00
2023-04-07T22:42:12.875Z,7.71
2023-04-07T22:44:41.202Z,7.77
2023-04-07T22:47:09.515Z,7.54
2023-04-07T22:49:37.823Z,6.96
2023-04-07T22:52:07.540Z,7.21
2023-04-07T22:54:35.819Z,7.36
2023-04-07T22:57:04.190Z,7.30
2023-04-07T22:59:32.566Z,7.53
2023-04-07T23:02:00.962Z,7.33
2023-04-07T23:04:29.283Z,7.23
2023-04-07T23:06:57.605Z,7.44
2023-04-07T23:09:27.693Z,7.34
2023-04-07T23:11:56.984Z,7.41
2023-04-07T23:14:25.516Z,7.36
2023-04-07T23:16:54.809Z,7.26
2023-04-07T23:19:23.181Z,7.59
2023-04-07T23:21:52.494Z,7.55
2023-04-07T23:24:20.833Z,7.65
2023-04-07T23:26:50.513Z,7.84
2023-04-07T23:29:18.815Z,7.77
2023-04-07T23:31:47.184Z,7.78
2023-04-07T23:34:15.467Z,7.79
2023-04-07T23:36:44.715Z,7.74
2023-04-07T23:39:12.985Z,7.79
2023-04-07T23:41:41.282Z,7.81
2023-04-07T23:44:10.974Z,7.83
2023-04-07T23:46:39.317Z,7.70
2023-04-07T23:49:07.752Z,7.61
2023-04-07T23:51:36.017Z,7.17
2023-04-07T23:54:04.323Z,7.27
2023-04-07T23:56:33.585Z,7.36
2023-04-07T23:59:01.883Z,7.52
